createdAt,value
2023-05-06T00:02:23.159Z,64.62
2023-05-06T00:04:49.751Z,64.60
2023-05-06T00:07:16.836Z,64.59
2023-05-06T00:09:43.348Z,65.15
2023-05-06T00:12:09.950Z,65.26
2023-05-06T00:14:41.816Z,64.93
2023-05-06T00:17:08.369Z,64.92
2023-05-06T00:19:40.824Z,64.43
2023-05-06T00:22:07.389Z,64.59
2023-05-06T00:24:33.875Z,64.37
2023-05-06T00:27:01.628Z,64.99
2023-05-06T00:29:28.121Z,64.71
2023-05-06T00:31:54.729Z,64.66
2023-05-06T00:34:21.279Z,64.27
2023-05-06T00:36:47.750Z,64.29
2023-05-06T00:39:14.252Z,63.81
2023-05-06T00:41:40.707Z,63.92
2023-05-06T00:44:07.312Z,63.81
2023-05-06T00:46:33.853Z,63.82
2023-05-06T00:49:00.557Z,64.67
2023-05-06T00:51:27.516Z,64.60
2023-05-06T00:53:57.011Z,64.28
2023-05-06T00:56:23.764Z,64.77
2023-05-06T00:58:53.402Z,65.16
2023-05-06T01:01:22.808Z,64.87
2023-05-06T01:03:49.530Z,65.00
2023-05-06T01:06:45.275Z,66.21
2023-05-06T01:09:21.450Z,65.63
2023-05-06T01:12:14.374Z,65.32
2023-05-06T01:15:09.387Z,65.27
2023-05-06T01:17:44.832Z,65.06
2023-05-06T01:20:13.170Z,65.22
2023-05-06T01:22:39.702Z,64.90
2023-05-06T01:25:26.418Z,65.35
2023-05-06T01:27:52.898Z,65.21
2023-05-06T01:30:28.647Z,64.91
2023-05-06T01:33:14.882Z,64.82
2023-05-06T01:36:27.272Z,64.94
2023-05-06T01:39:24.998Z,64.96
2023-05-06T01:41:55.838Z,64.48
2023-05-06T01:44:25.181Z,64.55
2023-05-06T01:46:53.693Z,64.46
2023-05-06T01:49:23.320Z,64.42
2023-05-06T01:51:51.604Z,64.28
2023-05-06T01:54:18.732Z,64.63
2023-05-06T01:56:45.816Z,64.90
2023-05-06T01:59:16.628Z,64.98
2023-05-06T02:01:52.073Z,65.44
2023-05-06T02:04:18.599Z,66.26
2023-05-06T02:07:01.012Z,66.56
2023-05-06T02:09:27.522Z,66.29
2023-05-06T02:11:53.969Z,66.83
2023-05-06T02:14:20.465Z,66.72
2023-05-06T02:16:46.965Z,66.77
2023-05-06T02:19:13.417Z,66.31
2023-05-06T02:21:45.592Z,65.98
2023-05-06T02:24:12.441Z,65.92
2023-05-06T02:26:38.908Z,66.29
2023-05-06T02:29:05.474Z,66.35
2023-05-06T02:31:31.977Z,65.54
2023-05-06T02:33:58.428Z,65.83
2023-05-06T02:36:24.896Z,66.16
2023-05-06T02:38:51.397Z,66.48
2023-05-06T02:41:17.967Z,66.44
2023-05-06T02:43:44.457Z,66.09
2023-05-06T02:46:11.389Z,66.27
2023-05-06T02:48:49.125Z,66.09
2023-05-06T02:51:16.056Z,66.59
2023-05-06T02:53:42.515Z,66.87
2023-05-06T02:56:08.936Z,67.19
2023-05-06T02:58:35.395Z,67.09
2023-05-06T03:01:01.949Z,67.35
2023-05-06T03:03:33.763Z,67.18
2023-05-06T03:06:03.394Z,66.78
2023-05-06T03:08:29.954Z,67.07
2023-05-06T03:10:59.436Z,66.89
2023-05-06T03:13:30.937Z,66.78
2023-05-06T03:15:57.406Z,66.50
2023-05-06T03:18:26.754Z,66.07
2023-05-06T03:20:53.280Z,66.41
2023-05-06T03:23:19.804Z,66.26
2023-05-06T03:25:46.240Z,66.65
2023-05-06T03:28:12.797Z,66.55
2023-05-06T03:30:39.756Z,65.95
2023-05-06T03:33:06.382Z,66.13
2023-05-06T03:35:32.998Z,65.86
2023-05-06T03:38:07.310Z,65.55
2023-05-06T03:40:39.347Z,65.51
2023-05-06T03:43:05.856Z,65.37
2023-05-06T03:45:44.849Z,65.88
2023-05-06T03:48:14.314Z,65.62
2023-05-06T03:50:43.951Z,66.00
2023-05-06T03:53:10.707Z,66.38
2023-05-06T03:55:37.280Z,65.77
2023-05-06T03:58:03.758Z,66.79
2023-05-06T04:00:30.261Z,66.87
2023-05-06T04:02:58.836Z,66.56
2023-05-06T04:05:25.427Z,66.79
2023-05-06T04:07:51.895Z,66.92
2023-05-06T04:10:18.538Z,66.70
2023-05-06T04:12:44.999Z,66.91
2023-05-06T04:15:12.098Z,66.60
2023-05-06T04:17:41.408Z,66.64
2023-05-06T04:20:09.502Z,66.41
2023-05-06T04:22:36.058Z,66.10
2023-05-06T04:25:02.626Z,66.95
2023-05-06T04:27:29.806Z,67.78
2023-05-06T04:29:56.802Z,68.23
2023-05-06T04:32:34.074Z,68.13
2023-05-06T04:35:00.672Z,69.29
2023-05-06T04:37:28.297Z,69.08
2023-05-06T04:39:55.786Z,67.48
2023-05-06T04:42:22.651Z,66.88
2023-05-06T04:44:52.370Z,67.47
2023-05-06T04:47:18.854Z,67.47
2023-05-06T04:49:45.350Z,68.23
2023-05-06T04:52:14.178Z,67.49
2023-05-06T04:54:40.783Z,67.38
2023-05-06T04:57:10.047Z,67.13
2023-05-06T04:59:36.512Z,67.45
2023-05-06T05:02:12.265Z,66.94
2023-05-06T05:04:38.883Z,67.05
2023-05-06T05:07:05.518Z,67.12
2023-05-06T05:09:38.556Z,66.76
2023-05-06T05:12:05.459Z,67.07
2023-05-06T05:14:39.321Z,66.93
2023-05-06T05:17:05.844Z,66.59
2023-05-06T05:19:32.332Z,66.13
2023-05-06T05:21:58.922Z,66.15
2023-05-06T05:24:31.184Z,66.62
2023-05-06T05:26:57.635Z,66.59
2023-05-06T05:29:24.261Z,66.97
2023-05-06T05:31:50.746Z,66.73
2023-05-06T05:34:17.223Z,66.87
2023-05-06T05:36:43.687Z,66.54
2023-05-06T05:39:10.175Z,66.24
2023-05-06T05:41:36.675Z,66.42
2023-05-06T05:44:03.259Z,66.19
2023-05-06T05:46:29.986Z,66.17
2023-05-06T05:48:56.517Z,66.11
2023-05-06T05:51:22.986Z,66.40
2023-05-06T05:53:49.669Z,66.63
2023-05-06T05:56:16.626Z,66.25
2023-05-06T05:58:43.283Z,66.33
2023-05-06T06:01:09.785Z,66.27
2023-05-06T06:03:36.439Z,65.86
2023-05-06T06:06:03.168Z,65.77
2023-05-06T06:08:29.934Z,65.91
2023-05-06T06:10:56.462Z,65.61
2023-05-06T06:13:23.162Z,65.44
2023-05-06T06:15:50.347Z,65.81
2023-05-06T06:18:20.025Z,65.50
2023-05-06T06:20:46.688Z,64.94
2023-05-06T06:23:22.776Z,64.31
2023-05-06T06:25:49.348Z,63.84
2023-05-06T06:28:22.072Z,63.58
2023-05-06T06:30:48.571Z,63.97
2023-05-06T06:33:15.060Z,63.33
2023-05-06T06:35:41.574Z,63.21
2023-05-06T06:38:08.034Z,63.20
2023-05-06T06:40:34.531Z,63.47
2023-05-06T06:43:04.961Z,62.71
2023-05-06T06:45:31.499Z,62.70
2023-05-06T06:47:58.039Z,63.51
2023-05-06T06:50:24.594Z,64.46
2023-05-06T06:52:51.111Z,64.75
2023-05-06T06:55:17.702Z,64.36
2023-05-06T06:57:44.239Z,64.44
2023-05-06T07:00:11.567Z,63.94
2023-05-06T07:02:41.082Z,63.50
2023-05-06T07:05:08.309Z,63.53
2023-05-06T07:07:35.034Z,63.00
2023-05-06T07:10:01.592Z,62.99
2023-05-06T07:12:28.430Z,63.09
2023-05-06T07:14:54.921Z,62.97
2023-05-06T07:17:21.462Z,62.97
2023-05-06T07:19:47.994Z,62.84
2023-05-06T07:22:14.502Z,63.08
2023-05-06T07:24:41.424Z,63.02
2023-05-06T07:27:08.040Z,62.61
2023-05-06T07:29:36.602Z,62.84
2023-05-06T07:32:03.619Z,62.66
2023-05-06T07:34:30.421Z,62.96
2023-05-06T07:36:57.202Z,63.19
2023-05-06T07:39:23.698Z,63.29
2023-05-06T07:41:53.123Z,63.27
2023-05-06T07:44:19.627Z,63.44
2023-05-06T07:46:46.328Z,63.36
2023-05-06T07:49:12.825Z,63.40
2023-05-06T07:51:39.645Z,63.23
2023-05-06T07:54:06.191Z,62.95
2023-05-06T07:56:32.642Z,62.92
2023-05-06T07:58:59.910Z,62.95
2023-05-06T08:01:28.941Z,62.56
2023-05-06T08:03:55.551Z,62.41
2023-05-06T08:06:22.163Z,61.92
2023-05-06T08:08:48.691Z,61.78
2023-05-06T08:11:19.251Z,61.38
2023-05-06T08:13:47.092Z,61.11
2023-05-06T08:16:13.898Z,60.62
2023-05-06T08:18:40.548Z,60.11
2023-05-06T08:21:07.091Z,60.02
2023-05-06T08:23:33.680Z,59.88
2023-05-06T08:26:00.195Z,59.90
2023-05-06T08:28:26.791Z,59.90
2023-05-06T08:30:53.351Z,60.06
2023-05-06T08:33:20.044Z,59.87
2023-05-06T08:35:50.645Z,59.08
2023-05-06T08:38:17.137Z,58.87
2023-05-06T08:40:44.925Z,59.15
2023-05-06T08:43:14.543Z,59.18
2023-05-06T08:45:42.258Z,58.95
2023-05-06T08:48:09.440Z,58.78
2023-05-06T08:50:43.092Z,58.24
2023-05-06T08:53:13.883Z,57.87
2023-05-06T08:55:45.160Z,57.27
2023-05-06T08:58:16.713Z,56.70
2023-05-06T09:00:46.772Z,55.89
2023-05-06T09:03:13.566Z,55.44
2023-05-06T09:05:49.893Z,55.51
2023-05-06T09:08:16.411Z,55.18
2023-05-06T09:10:45.053Z,54.86
2023-05-06T09:13:20.615Z,54.60
2023-05-06T09:15:49.433Z,54.65
2023-05-06T09:18:19.788Z,54.23
2023-05-06T09:20:49.377Z,53.57
2023-05-06T09:23:18.126Z,52.45
2023-05-06T09:25:46.883Z,52.13
2023-05-06T09:28:14.522Z,51.86
2023-05-06T09:30:43.746Z,51.14
2023-05-06T09:33:11.888Z,50.80
2023-05-06T09:35:43.696Z,50.06
2023-05-06T09:38:10.680Z,49.39
2023-05-06T09:40:41.074Z,47.44
2023-05-06T09:43:08.795Z,46.72
2023-05-06T09:45:36.291Z,46.97
2023-05-06T09:48:02.901Z,47.25
2023-05-06T09:50:29.406Z,46.64
2023-05-06T09:52:56.555Z,44.92
2023-05-06T09:55:28.934Z,45.53
2023-05-06T09:57:58.098Z,45.01
2023-05-06T10:00:31.268Z,45.93
2023-05-06T10:02:58.941Z,46.12
2023-05-06T10:05:27.133Z,46.34
2023-05-06T10:07:57.218Z,46.87
2023-05-06T10:10:27.010Z,47.14
2023-05-06T10:12:54.336Z,47.59
2023-05-06T10:15:21.822Z,47.48
2023-05-06T10:17:52.533Z,47.79
2023-05-06T10:20:24.137Z,48.14
2023-05-06T10:23:29.381Z,48.13
2023-05-06T10:26:01.240Z,47.93
2023-05-06T10:28:30.935Z,47.62
2023-05-06T10:30:59.746Z,47.44
2023-05-06T10:33:27.534Z,46.77
2023-05-06T10:36:21.327Z,45.27
2023-05-06T10:38:56.554Z,44.85
2023-05-06T10:41:27.842Z,44.54
2023-05-06T10:43:57.216Z,44.96
2023-05-06T10:46:29.048Z,45.00
2023-05-06T10:49:04.405Z,43.81
2023-05-06T10:51:41.255Z,44.34
2023-05-06T10:54:26.564Z,44.40
2023-05-06T10:56:53.144Z,43.89
2023-05-06T10:59:24.912Z,43.68
2023-05-06T11:01:57.107Z,39.98
2023-05-06T11:04:23.873Z,42.79
2023-05-06T11:06:53.604Z,42.29
2023-05-06T11:09:26.794Z,42.09
2023-05-06T11:12:06.488Z,41.68
2023-05-06T11:14:35.738Z,41.26
2023-05-06T11:17:08.617Z,39.77
2023-05-06T11:19:39.948Z,40.28
2023-05-06T11:22:07.369Z,40.48
2023-05-06T11:24:41.609Z,40.53
2023-05-06T11:27:10.260Z,40.52
2023-05-06T11:29:37.856Z,40.77
2023-05-06T11:32:21.843Z,40.88
2023-05-06T11:34:48.452Z,41.44
2023-05-06T11:37:28.921Z,40.94
2023-05-06T11:39:55.682Z,40.46
2023-05-06T11:42:28.675Z,40.25
2023-05-06T11:44:55.951Z,38.84
2023-05-06T11:47:23.821Z,38.91
2023-05-06T11:49:54.183Z,38.71
2023-05-06T11:52:21.154Z,38.72
2023-05-06T11:54:49.632Z,38.96
2023-05-06T11:57:16.808Z,38.79
2023-05-06T11:59:43.261Z,38.25
2023-05-06T12:02:14.157Z,37.75
2023-05-06T12:04:47.307Z,37.17
2023-05-06T12:07:16.283Z,36.83
2023-05-06T12:09:49.108Z,36.00
2023-05-06T12:12:22.309Z,36.77
2023-05-06T12:14:52.901Z,35.98
2023-05-06T12:17:20.041Z,35.32
2023-05-06T12:19:47.271Z,35.50
2023-05-06T12:22:18.669Z,35.15
2023-05-06T12:24:46.658Z,35.37
2023-05-06T12:27:13.283Z,35.94
2023-05-06T12:29:40.075Z,36.22
2023-05-06T12:32:11.525Z,34.80
2023-05-06T12:34:41.621Z,34.69
2023-05-06T12:37:08.773Z,34.95
2023-05-06T12:39:41.167Z,34.76
2023-05-06T12:42:07.679Z,35.06
2023-05-06T12:44:38.135Z,35.65
2023-05-06T12:47:07.672Z,36.09
2023-05-06T12:49:52.789Z,38.24
2023-05-06T12:52:28.613Z,36.07
2023-05-06T12:54:56.287Z,35.57
2023-05-06T12:57:23.226Z,34.90
2023-05-06T12:59:49.944Z,34.51
2023-05-06T13:02:16.556Z,34.38
2023-05-06T13:04:44.099Z,33.84
2023-05-06T13:07:10.653Z,34.19
2023-05-06T13:09:37.128Z,34.68
2023-05-06T13:12:04.986Z,34.35
2023-05-06T13:14:31.555Z,34.39
2023-05-06T13:17:00.997Z,34.19
2023-05-06T13:19:33.012Z,33.97
2023-05-06T13:22:00.592Z,33.89
2023-05-06T13:24:27.484Z,34.57
2023-05-06T13:26:53.943Z,33.68
2023-05-06T13:29:20.609Z,33.51
2023-05-06T13:31:47.243Z,33.46
2023-05-06T13:34:13.764Z,33.56
2023-05-06T13:36:40.336Z,33.19
2023-05-06T13:39:06.812Z,33.36
2023-05-06T13:41:33.574Z,33.40
2023-05-06T13:44:00.199Z,33.68
2023-05-06T13:46:29.756Z,33.06
2023-05-06T13:48:56.369Z,33.18
2023-05-06T13:51:22.854Z,33.09
2023-05-06T13:53:49.429Z,33.03
2023-05-06T13:56:15.881Z,32.66
2023-05-06T13:58:42.350Z,32.47
2023-05-06T14:01:08.788Z,32.51
2023-05-06T14:03:35.322Z,33.33
2023-05-06T14:06:02.031Z,33.06
2023-05-06T14:08:28.652Z,33.17
2023-05-06T14:10:55.160Z,33.21
2023-05-06T14:13:21.752Z,32.74
2023-05-06T14:15:48.469Z,33.33
2023-05-06T14:18:15.021Z,33.42
2023-05-06T14:20:41.549Z,33.49
2023-05-06T14:23:08.353Z,33.69
2023-05-06T14:25:35.979Z,33.66
2023-05-06T14:28:02.518Z,32.27
2023-05-06T14:30:29.899Z,31.79
2023-05-06T14:32:56.499Z,31.61
2023-05-06T14:35:23.223Z,32.13
2023-05-06T14:37:49.882Z,32.15
2023-05-06T14:40:17.146Z,32.33
2023-05-06T14:42:45.285Z,32.45
2023-05-06T14:45:13.652Z,32.19
2023-05-06T14:47:40.716Z,32.89
2023-05-06T14:50:09.517Z,32.95
2023-05-06T14:52:38.215Z,33.45
2023-05-06T14:55:08.110Z,33.82
2023-05-06T14:57:35.213Z,34.04
2023-05-06T15:00:09.819Z,34.04
2023-05-06T15:02:38.109Z,34.06
2023-05-06T15:05:05.559Z,33.67
2023-05-06T15:07:32.069Z,34.01
2023-05-06T15:09:58.572Z,33.78
2023-05-06T15:12:25.153Z,34.24
2023-05-06T15:14:51.780Z,34.29
2023-05-06T15:17:18.313Z,34.15
2023-05-06T15:19:44.800Z,34.76
2023-05-06T15:22:11.302Z,34.96
2023-05-06T15:24:37.825Z,34.58
2023-05-06T15:27:04.407Z,35.01
2023-05-06T15:29:30.942Z,34.91
2023-05-06T15:31:57.530Z,34.74
2023-05-06T15:34:24.501Z,34.75
2023-05-06T15:36:53.521Z,35.15
2023-05-06T15:39:20.117Z,35.34
2023-05-06T15:41:48.048Z,35.12
2023-05-06T15:44:16.343Z,34.88
2023-05-06T15:46:43.325Z,34.94
2023-05-06T15:49:39.496Z,35.02
2023-05-06T15:51:59.007Z,34.93
2023-05-06T15:54:27.335Z,34.65
2023-05-06T15:56:54.053Z,35.78
2023-05-06T15:59:20.530Z,38.10
2023-05-06T16:04:17.024Z,41.43
2023-05-06T16:06:43.648Z,41.38
2023-05-06T16:09:10.366Z,41.52
2023-05-06T16:11:36.953Z,42.10
2023-05-06T16:14:03.992Z,42.38
2023-05-06T16:16:30.592Z,42.37
2023-05-06T16:18:57.197Z,42.53
2023-05-06T16:21:23.969Z,42.56
2023-05-06T16:23:50.792Z,43.29
2023-05-06T16:26:17.752Z,44.13
2023-05-06T16:28:44.379Z,44.45
2023-05-06T16:31:10.977Z,44.28
2023-05-06T16:33:37.517Z,44.55
2023-05-06T16:36:04.355Z,44.63
2023-05-06T16:38:30.872Z,44.41
2023-05-06T16:40:57.369Z,44.65
2023-05-06T16:43:23.881Z,44.41
2023-05-06T16:45:50.570Z,45.37
2023-05-06T16:48:17.263Z,45.54
2023-05-06T16:50:43.825Z,45.65
2023-05-06T16:53:10.588Z,45.45
2023-05-06T16:55:37.126Z,45.89
2023-05-06T16:58:04.102Z,46.03
2023-05-06T17:00:31.965Z,46.33
2023-05-06T17:02:58.766Z,46.35
2023-05-06T17:05:25.713Z,46.18
2023-05-06T17:07:52.601Z,46.56
2023-05-06T17:10:19.192Z,46.34
2023-05-06T17:12:46.037Z,46.55
2023-05-06T17:15:12.532Z,46.43
2023-05-06T17:17:40.029Z,46.70
2023-05-06T17:20:07.839Z,46.49
2023-05-06T17:22:34.456Z,46.31
2023-05-06T17:25:00.937Z,46.66
2023-05-06T17:27:27.489Z,46.89
2023-05-06T17:29:54.061Z,46.59
2023-05-06T17:32:20.701Z,46.41
2023-05-06T17:34:47.219Z,46.58
2023-05-06T17:37:13.760Z,46.50
2023-05-06T17:39:40.306Z,46.57
2023-05-06T17:42:06.929Z,46.58
2023-05-06T17:44:35.185Z,46.46
2023-05-06T17:47:01.821Z,46.69
2023-05-06T17:49:28.350Z,47.13
2023-05-06T17:51:55.932Z,47.24
2023-05-06T17:54:22.992Z,47.51
2023-05-06T17:56:52.647Z,47.61
2023-05-06T17:59:23.001Z,47.50
2023-05-06T18:01:49.654Z,47.88
2023-05-06T18:04:16.346Z,47.77
2023-05-06T18:06:46.328Z,48.00
2023-05-06T18:09:12.942Z,48.36
2023-05-06T18:11:40.339Z,48.83
2023-05-06T18:14:06.967Z,48.87
2023-05-06T18:16:33.587Z,48.96
2023-05-06T18:19:04.972Z,49.38
2023-05-06T18:21:33.804Z,49.38
2023-05-06T18:24:10.116Z,49.52
2023-05-06T18:26:45.289Z,49.21
2023-05-06T18:29:12.741Z,49.36
2023-05-06T18:31:39.448Z,49.51
2023-05-06T18:34:06.079Z,49.85
2023-05-06T18:36:33.537Z,50.10
2023-05-06T18:39:01.221Z,50.46
2023-05-06T18:41:27.778Z,50.53
2023-05-06T18:43:54.307Z,50.40
2023-05-06T18:46:21.382Z,50.35
2023-05-06T18:48:48.132Z,50.30
2023-05-06T18:51:17.125Z,50.23
2023-05-06T18:53:44.812Z,50.37
2023-05-06T18:56:11.874Z,50.27
2023-05-06T18:58:40.514Z,50.25
2023-05-06T19:01:09.738Z,50.69
2023-05-06T19:03:37.893Z,51.28
2023-05-06T19:06:10.514Z,52.19
2023-05-06T19:08:37.677Z,52.09
2023-05-06T19:11:04.367Z,51.98
2023-05-06T19:13:31.211Z,51.64
2023-05-06T19:15:57.818Z,51.37
2023-05-06T19:18:24.419Z,51.19
2023-05-06T19:20:51.424Z,51.16
2023-05-06T19:23:19.144Z,51.61
2023-05-06T19:25:45.897Z,52.25
2023-05-06T19:28:12.459Z,52.53
2023-05-06T19:30:39.141Z,52.82
2023-05-06T19:33:05.721Z,52.65
2023-05-06T19:35:39.648Z,52.28
2023-05-06T19:38:09.313Z,52.25
2023-05-06T19:40:35.899Z,52.20
2023-05-06T19:43:05.466Z,52.59
2023-05-06T19:45:33.450Z,52.62
2023-05-06T19:48:01.211Z,52.76
2023-05-06T19:50:28.426Z,52.92
2023-05-06T19:52:54.888Z,52.89
2023-05-06T19:55:22.157Z,53.07
2023-05-06T19:57:50.322Z,53.27
2023-05-06T20:00:19.911Z,53.60
2023-05-06T20:02:46.611Z,53.98
2023-05-06T20:05:13.663Z,54.05
2023-05-06T20:07:41.188Z,53.98
2023-05-06T20:10:09.991Z,54.10
2023-05-06T20:12:36.561Z,54.30
2023-05-06T20:15:06.866Z,53.99
2023-05-06T20:17:34.520Z,54.14
2023-05-06T20:20:02.746Z,54.12
2023-05-06T20:22:32.262Z,54.04
2023-05-06T20:25:12.948Z,54.27
2023-05-06T20:27:39.573Z,54.02
2023-05-06T20:30:08.050Z,54.14
2023-05-06T20:32:34.950Z,54.57
2023-05-06T20:35:01.650Z,54.87
2023-05-06T20:37:29.302Z,55.29
2023-05-06T20:39:56.296Z,55.29
2023-05-06T20:42:22.823Z,55.19
2023-05-06T20:44:51.281Z,55.28
2023-05-06T20:47:18.455Z,55.67
2023-05-06T20:49:45.000Z,55.53
2023-05-06T20:52:14.385Z,55.41
2023-05-06T20:54:45.429Z,55.47
2023-05-06T20:57:15.195Z,55.53
2023-05-06T20:59:42.751Z,55.47
2023-05-06T21:02:10.016Z,55.14
2023-05-06T21:04:36.664Z,55.64
2023-05-06T21:07:03.324Z,55.47
2023-05-06T21:09:29.821Z,55.20
2023-05-06T21:11:56.624Z,54.91
2023-05-06T21:14:26.420Z,55.25
2023-05-06T21:16:53.706Z,55.21
2023-05-06T21:19:20.668Z,55.40
2023-05-06T21:21:47.190Z,55.51
2023-05-06T21:24:13.795Z,55.70
2023-05-06T21:26:40.264Z,55.84
2023-05-06T21:29:06.845Z,56.00
2023-05-06T21:31:33.555Z,56.27
2023-05-06T21:34:00.312Z,55.95
2023-05-06T21:36:27.109Z,55.93
2023-05-06T21:39:07.923Z,56.35
2023-05-06T21:41:35.942Z,56.18
2023-05-06T21:44:04.195Z,55.99
2023-05-06T21:46:31.716Z,55.86
2023-05-06T21:48:59.485Z,56.24
2023-05-06T21:51:37.599Z,56.34
2023-05-06T21:54:04.224Z,56.55
2023-05-06T21:56:30.768Z,56.59
2023-05-06T21:58:57.243Z,56.63
2023-05-06T22:01:26.183Z,56.78
2023-05-06T22:03:53.961Z,57.20
2023-05-06T22:06:21.150Z,56.95
2023-05-06T22:08:47.681Z,57.12
2023-05-06T22:11:14.355Z,57.02
2023-05-06T22:13:40.905Z,57.05
2023-05-06T22:16:08.001Z,57.29
2023-05-06T22:18:35.886Z,57.69
2023-05-06T22:21:03.161Z,57.66
2023-05-06T22:23:29.809Z,57.52
2023-05-06T22:26:00.248Z,57.39
2023-05-06T22:28:26.941Z,57.59
2023-05-06T22:30:53.449Z,57.83
2023-05-06T22:33:24.953Z,57.77
2023-05-06T22:35:51.496Z,57.85
2023-05-06T22:38:18.029Z,57.59
2023-05-06T22:40:44.552Z,57.75
2023-05-06T22:43:11.028Z,57.50
2023-05-06T22:45:37.751Z,57.54
2023-05-06T22:48:05.326Z,57.69
2023-05-06T22:50:34.748Z,57.70
2023-05-06T22:53:07.531Z,57.67
2023-05-06T22:55:41.299Z,58.00
2023-05-06T22:58:07.759Z,58.03
2023-05-06T23:00:34.328Z,58.32
2023-05-06T23:03:00.867Z,58.66
2023-05-06T23:05:27.399Z,58.58
2023-05-06T23:07:53.915Z,58.33
2023-05-06T23:10:20.469Z,58.59
2023-05-06T23:12:47.045Z,58.34
2023-05-06T23:15:20.345Z,58.05
2023-05-06T23:17:46.855Z,58.44
2023-05-06T23:20:13.654Z,58.83
2023-05-06T23:22:40.390Z,59.16
2023-05-06T23:25:09.350Z,59.38
2023-05-06T23:27:39.965Z,59.51
2023-05-06T23:30:08.870Z,59.43
2023-05-06T23:32:38.712Z,59.81
2023-05-06T23:35:07.143Z,59.97
2023-05-06T23:37:33.881Z,59.82
2023-05-06T23:40:00.466Z,60.17
2023-05-06T23:42:27.080Z,60.31
2023-05-06T23:44:53.628Z,60.21
2023-05-06T23:47:20.116Z,60.32
2023-05-06T23:49:46.772Z,60.12
2023-05-06T23:52:13.218Z,60.05
2023-05-06T23:54:39.728Z,60.36
2023-05-06T23:57:06.461Z,60.60
2023-05-06T23:59:32.908Z,60.59
